Time;durP1;ratioP1;P1;durP2;ratioP2;P2;SDS_P1;SDS_P2;PMS_P1;PMS_P2;Temp;Humidity;BMP_temperature;BMP_pressure;BME280_temperature;BME280_humidity;BME280_pressure;Samples;Min_cycle;Max_cycle;Signal;HPM_P1;HPM_P2
2021/11/10 00:01:42;;;;;;;;;;;;;;;-144.99;96.52;52596.88;5060822;28;19974;-75
2021/11/10 00:04:09;;;;;;;;;;;;;;;-144.99;96.05;52611.16;5063537;28;19985;-74
2021/11/10 00:06:36;;;;;;;;;;;;;;;-144.99;96.03;52554.09;5059269;28;19985;-74
2021/11/10 00:09:03;;;;;;;;;;;;;;;-144.99;96.43;52570.38;5063691;28;20050;-75
2021/11/10 00:11:30;;;;;;;;;;;;;;;-144.99;96.62;52594.84;5053904;28;19989;-74
2021/11/10 00:13:56;;;;;;;;;;;;;;;-144.99;96.80;52550.00;5063128;28;19976;-73
2021/11/10 00:16:23;;;;;;;;;;;;;;;-144.99;96.75;52603.00;5063872;28;20439;-73
2021/11/10 00:18:51;;;;;;;;;;;;;;;-144.99;96.83;52586.69;5058713;28;19984;-74
2021/11/10 00:21:17;;;;;;;;;;;;;;;-144.99;96.69;52611.16;5058532;28;20000;-73
2021/11/10 00:23:44;;;;;;;;;;;;;;;-144.99;96.64;52594.84;5067468;28;19985;-73
2021/11/10 00:26:11;;;;;;;;;;;;;;;-144.99;96.46;52582.63;5054698;28;19997;-73
2021/11/10 00:28:37;;;;;;;;;;;;;;;-144.99;97.09;52570.38;5067700;28;20000;-74
2021/11/10 00:31:04;;;;;;;;;;;;;;;-144.99;96.99;52578.53;5053615;28;20490;-74
2021/11/10 00:33:30;;;;;;;;;;;;;;;-144.99;96.72;52580.59;5067436;28;19981;-74
2021/11/10 00:35:57;;;;;;;;;;;;;;;-144.99;96.35;52562.25;5065565;28;20446;-73
2021/11/10 00:38:23;;;;;;;;;;;;;;;-144.99;96.24;52592.81;5068185;28;19981;-74
2021/11/10 00:40:49;;;;;;;;;;;;;;;-144.99;95.60;52545.94;5063875;28;20991;-75
2021/11/10 00:43:17;;;;;;;;;;;;;;;-144.99;95.36;52545.94;5061139;28;19988;-73
2021/11/10 00:45:43;;;;;;;;;;;;;;;-144.99;94.80;52554.09;5064299;28;19992;-75
2021/11/10 00:48:10;;;;;;;;;;;;;;;-144.99;94.30;52584.66;5067838;28;19985;-73
2021/11/10 00:50:37;;;;;;;;;;;;;;;-144.99;94.49;52590.78;5058691;28;20478;-75
2021/11/10 00:53:04;;;;;;;;;;;;;;;-144.99;94.08;52562.25;5055774;28;19984;-74
2021/11/10 00:55:30;;;;;;;;;;;;;;;-144.99;94.38;52598.94;5055768;28;19984;-76
2021/11/10 00:57:57;;;;;;;;;;;;;;;-144.99;94.85;52592.81;5061926;28;19981;-74
2021/11/10 01:00:25;;;;;;;;;;;;;;;-144.99;94.17;52590.78;5067569;28;19996;-76
2021/11/10 01:02:51;;;;;;;;;;;;;;;-144.99;94.50;52586.69;5065319;28;19973;-74
2021/11/10 01:05:18;;;;;;;;;;;;;;;-144.99;94.02;52558.16;5070435;28;20378;-74
2021/11/10 01:07:44;;;;;;;;;;;;;;;-144.99;93.89;52550.00;5070166;28;20003;-75
2021/11/10 01:10:12;;;;;;;;;;;;;;;-144.99;93.69;52543.91;5072266;28;20374;-74
2021/11/10 01:12:38;;;;;;;;;;;;;;;-144.99;93.83;52594.84;5067490;28;20439;-73
2021/11/10 01:15:05;;;;;;;;;;;;;;;-144.99;93.96;52603.00;5066494;28;19984;-73
2021/11/10 01:17:33;;;;;;;;;;;;;;;-144.99;94.01;52580.59;5066067;28;20470;-76
2021/11/10 01:20:00;;;;;;;;;;;;;;;-144.99;94.20;52541.84;5067508;28;20000;-76
2021/11/10 01:22:26;;;;;;;;;;;;;;;-144.99;93.71;52562.25;5070351;28;20047;-74
2021/11/10 01:24:52;;;;;;;;;;;;;;;-144.99;93.80;52582.63;5070472;28;19993;-73
2021/11/10 01:27:19;;;;;;;;;;;;;;;-144.99;93.97;52558.16;5070017;28;20401;-73
2021/11/10 01:29:46;;;;;;;;;;;;;;;-144.99;94.31;52578.53;5070844;28;20417;-74
2021/11/10 01:32:12;;;;;;;;;;;;;;;-144.99;93.83;52576.50;5062661;28;19974;-74
2021/11/10 01:34:40;;;;;;;;;;;;;;;-144.99;93.63;52574.47;5066438;28;19973;-74
2021/11/10 01:37:06;;;;;;;;;;;;;;;-144.99;93.54;52592.81;5058938;28;19977;-73
2021/11/10 01:39:33;;;;;;;;;;;;;;;-144.99;93.86;52562.25;5064884;28;20384;-74
2021/11/10 01:42:03;;;;;;;;;;;;;;;-144.99;93.27;52582.63;5065376;28;19973;-74
2021/11/10 01:44:31;;;;;;;;;;;;;;;-144.99;93.86;52576.50;5061879;28;19984;-73
2021/11/10 01:46:59;;;;;;;;;;;;;;;-144.99;93.82;52558.16;5065039;28;19996;-74
2021/11/10 01:49:25;;;;;;;;;;;;;;;-144.99;93.09;52529.63;5070776;28;20024;-74
2021/11/10 01:51:55;;;;;;;;;;;;;;;-144.99;93.05;52576.50;5070032;28;19980;-75
2021/11/10 01:54:23;;;;;;;;;;;;;;;-144.99;93.43;52592.81;5061986;28;19987;-74
2021/11/10 01:56:50;;;;;;;;;;;;;;;-144.99;93.24;52558.16;5068183;28;19973;-74
2021/11/10 01:59:28;;;;;;;;;;;;;;;-144.99;92.94;52578.53;5061941;28;20028;-74
2021/11/10 02:01:54;;;;;;;;;;;;;;;-144.99;93.27;52582.63;5065715;28;19980;-73
2021/11/10 02:04:21;;;;;;;;;;;;;;;-144.99;92.80;52582.63;5069013;28;19981;-74
2021/11/10 02:06:47;;;;;;;;;;;;;;;-144.99;92.71;52594.84;5062556;28;20003;-75
2021/11/10 02:09:14;;;;;;;;;;;;;;;-144.99;92.75;52578.53;5087807;28;19961;-73
2021/11/10 02:11:41;;;;;;;;;;;;;;;-144.99;92.44;52550.00;5080188;28;19999;-75
2021/11/10 02:14:07;;;;;;;;;;;;;;;-144.99;93.08;52513.31;5081905;28;19973;-74
2021/11/10 02:16:37;;;;;;;;;;;;;;;-144.99;93.76;52562.25;5082929;28;19988;-75
2021/11/10 02:19:04;;;;;;;;;;;;;;;-144.99;93.75;52570.38;5085633;28;20003;-75
2021/11/10 02:21:32;;;;;;;;;;;;;;;-144.99;93.69;52529.63;5075641;28;19989;-75
2021/11/10 02:23:59;;;;;;;;;;;;;;;-144.99;93.80;52554.09;5071904;28;20044;-74
2021/11/10 02:26:25;;;;;;;;;;;;;;;-144.99;93.47;52517.41;5071064;28;20000;-73
2021/11/10 02:28:51;;;;;;;;;;;;;;;-144.99;93.22;52586.69;5067999;28;20020;-74
2021/11/10 02:31:18;;;;;;;;;;;;;;;-144.99;92.90;52576.50;5072520;28;20004;-74
2021/11/10 02:33:45;;;;;;;;;;;;;;;-144.99;92.97;52600.97;5078551;28;20545;-75
2021/11/10 02:36:11;;;;;;;;;;;;;;;-144.99;92.77;52590.78;5068031;28;20060;-74
2021/11/10 02:38:39;;;;;;;;;;;;;;;-144.99;92.89;52586.69;5076545;28;19988;-74
2021/11/10 02:41:05;;;;;;;;;;;;;;;-144.99;93.19;52578.53;5069229;28;20005;-74
2021/11/10 02:43:32;;;;;;;;;;;;;;;-144.99;93.07;52564.28;5078125;28;19961;-73
2021/11/10 02:45:58;;;;;;;;;;;;;;;-144.99;93.40;52543.91;5077037;28;20117;-73
2021/11/10 02:48:25;;;;;;;;;;;;;;;-144.99;93.43;52574.47;5070007;28;19977;-74
2021/11/10 02:50:51;;;;;;;;;;;;;;;-144.99;93.56;52558.16;5063431;28;19993;-74
2021/11/10 02:53:18;;;;;;;;;;;;;;;-144.99;93.38;52525.56;5070659;28;20370;-73
2021/11/10 02:55:45;;;;;;;;;;;;;;;-144.99;93.26;52566.31;5062582;28;20450;-73
2021/11/10 02:58:12;;;;;;;;;;;;;;;-144.99;93.53;52562.25;5064523;28;20030;-72
2021/11/10 03:00:38;;;;;;;;;;;;;;;-144.99;93.58;52566.31;5064966;28;20088;-73
2021/11/10 03:03:05;;;;;;;;;;;;;;;-144.99;93.64;52558.16;5066511;28;19973;-73
2021/11/10 03:05:31;;;;;;;;;;;;;;;-144.99;93.87;52537.78;5068399;28;20596;-73
2021/11/10 03:07:58;;;;;;;;;;;;;;;-144.99;93.93;52556.13;5066456;28;19980;-75
2021/11/10 03:10:25;;;;;;;;;;;;;;;-144.99;93.76;52570.38;5067343;28;19993;-72
2021/11/10 03:12:53;;;;;;;;;;;;;;;-144.99;93.83;52598.94;5064530;28;20060;-74
2021/11/10 03:15:19;;;;;;;;;;;;;;;-144.99;93.87;52537.78;5062367;28;19981;-73
2021/11/10 03:17:46;;;;;;;;;;;;;;;-144.99;93.90;52590.78;5067016;28;20083;-73
2021/11/10 03:20:12;;;;;;;;;;;;;;;-144.99;94.18;52558.16;5075937;28;20022;-73
2021/11/10 03:22:38;;;;;;;;;;;;;;;-144.99;94.40;52529.63;5070040;28;19992;-75
2021/11/10 03:25:05;;;;;;;;;;;;;;;-144.99;94.55;52590.78;5068924;28;20155;-73
2021/11/10 03:27:32;;;;;;;;;;;;;;;-144.99;94.50;52578.53;5065586;28;20084;-73
2021/11/10 03:29:59;;;;;;;;;;;;;;;-144.99;94.20;52568.34;5069890;28;19979;-73
2021/11/10 03:32:26;;;;;;;;;;;;;;;-144.99;94.15;52541.84;5071719;28;20343;-73
2021/11/10 03:34:52;;;;;;;;;;;;;;;-144.99;93.93;52552.03;5075527;28;20067;-73
2021/11/10 03:37:19;;;;;;;;;;;;;;;-144.99;94.66;52594.84;5074007;28;19981;-74
2021/11/10 03:39:45;;;;;;;;;;;;;;;-144.99;94.66;52582.63;5081920;28;20039;-73
2021/11/10 03:42:12;;;;;;;;;;;;;;;-144.99;95.67;52627.47;5080197;28;19980;-73
2021/11/10 03:44:38;;;;;;;;;;;;;;;-144.99;96.60;52590.78;5077102;28;19977;-73
2021/11/10 03:47:06;;;;;;;;;;;;;;;-144.99;97.31;52590.78;5079750;28;19993;-73
2021/11/10 03:49:32;;;;;;;;;;;;;;;-144.99;96.72;52578.53;5083896;28;19981;-74
2021/11/10 03:51:59;;;;;;;;;;;;;;;-144.99;96.82;52554.09;5084827;28;19991;-76
2021/11/10 03:54:25;;;;;;;;;;;;;;;-144.99;97.01;52590.78;5067839;28;20065;-76
2021/11/10 03:56:51;;;;;;;;;;;;;;;-144.99;96.80;52550.00;5065598;28;19977;-74
2021/11/10 03:59:17;;;;;;;;;;;;;;;-144.99;97.00;52582.63;5063497;28;19988;-74
2021/11/10 04:01:45;;;;;;;;;;;;;;;-144.99;97.54;52570.38;5056550;28;20357;-74
2021/11/10 04:04:13;;;;;;;;;;;;;;;-144.99;98.38;52594.84;5066037;28;19981;-74
2021/11/10 04:06:39;;;;;;;;;;;;;;;-144.99;98.47;52592.81;5068303;28;20003;-73
2021/11/10 04:09:05;;;;;;;;;;;;;;;-144.99;99.89;52586.69;5063462;28;19980;-75
2021/11/10 04:11:32;;;;;;;;;;;;;;;-144.99;98.97;52576.50;5067364;28;19997;-75
2021/11/10 04:13:58;;;;;;;;;;;;;;;-144.99;99.86;52570.38;5067621;28;20031;-74
2021/11/10 04:16:25;;;;;;;;;;;;;;;-144.99;99.81;52592.81;5064501;28;19981;-75
2021/11/10 04:18:52;;;;;;;;;;;;;;;-144.99;100.00;52594.84;5061549;28;19987;-74
2021/11/10 04:21:20;;;;;;;;;;;;;;;-144.99;99.48;52562.25;5068304;28;20072;-75
2021/11/10 04:23:48;;;;;;;;;;;;;;;-144.99;99.77;52582.63;5068766;28;19985;-76
2021/11/10 04:26:14;;;;;;;;;;;;;;;-144.99;99.76;52570.38;5067433;28;20040;-76
2021/11/10 04:28:41;;;;;;;;;;;;;;;-144.99;100.00;52590.78;5069634;28;20345;-75
2021/11/10 04:31:07;;;;;;;;;;;;;;;-144.99;100.00;52550.00;5069070;28;20004;-76
2021/11/10 04:33:34;;;;;;;;;;;;;;;-144.99;100.00;52539.81;5068431;28;20383;-75
2021/11/10 04:36:00;;;;;;;;;;;;;;;-144.99;100.00;52545.94;5050389;28;20004;-75
2021/11/10 04:38:27;;;;;;;;;;;;;;;-144.99;100.00;52590.78;5061164;28;19977;-73
2021/11/10 04:40:54;;;;;;;;;;;;;;;-144.99;100.00;52586.69;5070710;28;20015;-73
2021/11/10 04:43:20;;;;;;;;;;;;;;;-144.99;100.00;52603.00;5063127;28;20000;-74
2021/11/10 04:45:50;;;;;;;;;;;;;;;-144.99;100.00;52607.09;5062294;28;19985;-73
2021/11/10 04:48:16;;;;;;;;;;;;;;;-144.99;100.00;52578.53;5071745;28;20004;-73
2021/11/10 04:50:44;;;;;;;;;;;;;;;-144.99;100.00;52562.25;5063881;28;19993;-74
2021/11/10 04:53:12;;;;;;;;;;;;;;;-144.99;100.00;52603.00;5069775;28;19980;-73
2021/11/10 04:55:40;;;;;;;;;;;;;;;-144.99;100.00;52600.97;5065319;28;19996;-74
2021/11/10 04:58:06;;;;;;;;;;;;;;;-144.99;100.00;52541.84;5068348;28;20462;-73
2021/11/10 05:00:32;;;;;;;;;;;;;;;-144.99;100.00;52566.31;5070841;28;19993;-73
2021/11/10 05:02:59;;;;;;;;;;;;;;;-144.99;100.00;52533.69;5062840;28;19984;-73
2021/11/10 05:05:25;;;;;;;;;;;;;;;-144.99;99.69;52558.16;5067152;28;19981;-74
2021/11/10 05:07:51;;;;;;;;;;;;;;;-144.99;100.00;52586.69;5071324;28;20015;-74
2021/11/10 05:10:18;;;;;;;;;;;;;;;-144.99;100.00;52558.16;5072287;28;20004;-74
2021/11/10 05:12:46;;;;;;;;;;;;;;;-144.99;99.67;52594.84;5069044;28;20348;-74
2021/11/10 05:15:12;;;;;;;;;;;;;;;-144.99;99.16;52558.16;5069542;28;19995;-74
2021/11/10 05:17:39;;;;;;;;;;;;;;;-144.99;99.00;52594.84;5070728;28;19981;-75
2021/11/10 05:20:06;;;;;;;;;;;;;;;-144.99;98.79;52550.00;5066728;28;19997;-76
2021/11/10 05:22:32;;;;;;;;;;;;;;;-144.99;98.86;52611.16;5071225;28;19981;-76
2021/11/10 05:24:58;;;;;;;;;;;;;;;-144.99;98.67;52582.63;5066113;28;19984;-75
2021/11/10 05:27:25;;;;;;;;;;;;;;;-144.99;98.56;52623.38;5061252;28;20004;-74
2021/11/10 05:29:52;;;;;;;;;;;;;;;-144.99;99.16;52598.94;5062843;28;19993;-76
2021/11/10 05:32:19;;;;;;;;;;;;;;;-144.99;99.33;52550.00;5069833;28;20000;-74
2021/11/10 05:34:45;;;;;;;;;;;;;;;-144.99;99.10;52627.47;5053979;28;20324;-75
2021/11/10 05:37:11;;;;;;;;;;;;;;;-144.99;99.34;52598.94;5070104;28;19991;-75
2021/11/10 05:39:38;;;;;;;;;;;;;;;-144.99;98.66;52574.47;5059148;28;20008;-76
2021/11/10 05:42:04;;;;;;;;;;;;;;;-144.99;99.02;52623.38;5068158;28;19981;-75
2021/11/10 05:44:32;;;;;;;;;;;;;;;-144.99;98.98;52580.59;5068217;28;19977;-75
2021/11/10 05:47:00;;;;;;;;;;;;;;;-144.99;98.19;52576.50;5070239;28;20460;-75
2021/11/10 05:49:26;;;;;;;;;;;;;;;-144.99;98.21;52574.47;5068933;28;19981;-74
2021/11/10 05:51:52;;;;;;;;;;;;;;;-144.99;98.21;52554.09;5068013;28;20440;-74
2021/11/10 05:54:19;;;;;;;;;;;;;;;-144.99;100.00;52574.47;5077206;28;19988;-74
2021/11/10 05:56:47;;;;;;;;;;;;;;;-144.99;100.00;52609.13;5068536;28;19987;-73
2021/11/10 05:59:13;;;;;;;;;;;;;;;-144.99;98.08;52550.00;5071391;28;19964;-74
2021/11/10 06:01:40;;;;;;;;;;;;;;;-144.99;97.51;52611.16;5071876;28;20365;-72
2021/11/10 06:04:08;;;;;;;;;;;;;;;-144.99;95.83;52523.50;4362491;28;10000637;-73
2021/11/10 06:06:35;;;;;;;;;;;;;;;-144.99;96.05;52558.16;5067524;28;20008;-73
2021/11/10 06:09:01;;;;;;;;;;;;;;;-144.99;95.83;52566.31;5067617;28;20010;-74
2021/11/10 06:11:27;;;;;;;;;;;;;;;-144.99;96.35;52590.78;5066776;28;20420;-74
2021/11/10 06:13:54;;;;;;;;;;;;;;;-144.99;96.41;52578.53;5065640;28;19977;-74
2021/11/10 06:16:20;;;;;;;;;;;;;;;-144.99;97.67;52558.16;5052707;28;19981;-72
2021/11/10 06:18:46;;;;;;;;;;;;;;;-144.99;97.75;52562.25;5068278;28;20013;-75
2021/11/10 06:21:14;;;;;;;;;;;;;;;-144.99;97.93;52576.50;5064489;28;19992;-74
2021/11/10 06:23:40;;;;;;;;;;;;;;;-144.99;97.55;52576.50;5059479;28;19964;-75
2021/11/10 06:26:07;;;;;;;;;;;;;;;-144.99;97.78;52594.84;5066802;28;19976;-73
2021/11/10 06:28:33;;;;;;;;;;;;;;;-144.99;97.09;52554.09;5067292;28;20012;-73
2021/11/10 06:31:00;;;;;;;;;;;;;;;-144.99;97.17;52550.00;5067345;28;20007;-73
2021/11/10 06:33:26;;;;;;;;;;;;;;;-144.99;97.41;52562.25;5063381;28;20411;-73
2021/11/10 06:35:53;;;;;;;;;;;;;;;-144.99;97.31;52586.69;5066700;28;19981;-73
2021/11/10 06:38:20;;;;;;;;;;;;;;;-144.99;97.34;52562.25;5067205;28;19980;-73
2021/11/10 06:40:47;;;;;;;;;;;;;;;-144.99;97.41;52580.59;5067453;28;20000;-73
2021/11/10 06:43:13;;;;;;;;;;;;;;;-144.99;97.32;52562.25;5063170;28;20517;-72
2021/11/10 06:45:39;;;;;;;;;;;;;;;-144.99;96.96;52558.16;5064529;28;20055;-71
2021/11/10 06:48:06;;;;;;;;;;;;;;;-144.99;96.91;52598.94;5066588;28;20540;-73
2021/11/10 06:50:32;;;;;;;;;;;;;;;-144.99;96.74;52562.25;5068905;28;20616;-73
2021/11/10 06:52:58;;;;;;;;;;;;;;;-144.99;96.45;52550.00;5068426;28;19980;-73
2021/11/10 06:55:26;;;;;;;;;;;;;;;-144.99;96.18;52554.09;5062725;28;19988;-73
2021/11/10 06:57:52;;;;;;;;;;;;;;;-144.99;96.10;52541.84;5064561;28;19988;-73
2021/11/10 07:00:19;;;;;;;;;;;;;;;-144.99;95.88;52560.19;5066904;28;20001;-74
2021/11/10 07:02:45;;;;;;;;;;;;;;;-144.99;95.59;52541.84;5065056;28;19984;-74
2021/11/10 07:05:12;;;;;;;;;;;;;;;-144.99;95.27;52558.16;5067447;28;20360;-73
2021/11/10 07:07:38;;;;;;;;;;;;;;;-144.99;94.10;52550.00;5081545;28;20000;-75
2021/11/10 07:10:05;;;;;;;;;;;;;;;-144.99;93.44;52550.00;5081636;28;19997;-75
2021/11/10 07:12:33;;;;;;;;;;;;;;;-144.99;92.70;52554.09;5083010;28;20425;-74
2021/11/10 07:14:59;;;;;;;;;;;;;;;-144.99;92.35;52554.09;5081000;28;19977;-74
2021/11/10 07:17:25;;;;;;;;;;;;;;;-144.99;92.16;52533.69;5081371;28;19977;-74
2021/11/10 07:19:51;;;;;;;;;;;;;;;-144.99;92.05;52560.19;5079439;28;19989;-73
2021/11/10 07:22:18;;;;;;;;;;;;;;;-144.99;92.36;52513.31;5081255;28;20224;-74
2021/11/10 07:24:44;;;;;;;;;;;;;;;-144.99;92.29;52578.53;5068549;28;19985;-73
2021/11/10 07:27:10;;;;;;;;;;;;;;;-144.99;92.23;52550.00;5059097;28;19997;-74
2021/11/10 07:29:38;;;;;;;;;;;;;;;-144.99;91.72;52545.94;5064742;28;20490;-74
2021/11/10 07:32:05;;;;;;;;;;;;;;;-144.99;92.12;52566.31;5066682;28;19976;-72
2021/11/10 07:34:31;;;;;;;;;;;;;;;-144.99;91.89;52570.38;5067239;28;19980;-74
2021/11/10 07:36:58;;;;;;;;;;;;;;;-144.99;91.44;52550.00;5064520;28;20072;-74
2021/11/10 07:39:25;;;;;;;;;;;;;;;-144.99;91.80;52539.81;5059229;28;19981;-73
2021/11/10 07:41:52;;;;;;;;;;;;;;;-144.99;91.88;52537.78;5065034;28;20030;-74
2021/11/10 07:44:18;;;;;;;;;;;;;;;-144.99;91.82;52574.47;5064813;28;19977;-72
2021/11/10 07:46:51;;;;;;;;;;;;;;;-144.99;91.47;52574.47;5067157;28;19988;-73
2021/11/10 07:49:18;;;;;;;;;;;;;;;-144.99;91.13;52529.63;5059667;28;20007;-74
2021/11/10 07:51:45;;;;;;;;;;;;;;;-144.99;90.79;52541.84;5064442;28;20016;-72
2021/11/10 07:54:11;;;;;;;;;;;;;;;-144.99;91.16;52605.03;5065753;28;20496;-73
2021/11/10 07:56:37;;;;;;;;;;;;;;;-144.99;91.17;52566.31;5064158;28;19981;-73
2021/11/10 07:59:04;;;;;;;;;;;;;;;-144.99;90.72;52515.34;5065600;28;19980;-74
2021/11/10 08:01:32;;;;;;;;;;;;;;;-144.99;90.30;52527.59;5065614;28;20378;-75
2021/11/10 08:04:02;;;;;;;;;;;;;;;-144.99;90.53;52598.94;5061164;28;20324;-73
2021/11/10 08:06:29;;;;;;;;;;;;;;;-144.99;90.50;52529.63;5064098;28;19981;-74
2021/11/10 08:08:55;;;;;;;;;;;;;;;-144.99;90.74;52484.78;5063528;28;19989;-73
2021/11/10 08:11:21;;;;;;;;;;;;;;;-144.99;89.98;52541.84;5064247;28;20389;-72
2021/11/10 08:13:47;;;;;;;;;;;;;;;-144.99;89.48;52574.47;5063425;28;20533;-74
2021/11/10 08:16:14;;;;;;;;;;;;;;;-144.99;87.48;52564.28;5065748;28;19984;-73
2021/11/10 08:18:40;;;;;;;;;;;;;;;-144.99;87.29;52492.94;5066181;28;20000;-74
2021/11/10 08:21:10;;;;;;;;;;;;;;;-144.99;87.27;52566.31;5065346;28;19993;-74
2021/11/10 08:23:36;;;;;;;;;;;;;;;-144.99;87.72;52533.69;5064357;28;19981;-73
2021/11/10 08:26:03;;;;;;;;;;;;;;;-144.99;87.70;52525.56;5064061;28;19980;-72
2021/11/10 08:28:30;;;;;;;;;;;;;;;-144.99;87.56;52525.56;5064255;28;20003;-74
2021/11/10 08:30:56;;;;;;;;;;;;;;;-144.99;87.11;52521.47;5067305;28;20051;-72
2021/11/10 08:33:23;;;;;;;;;;;;;;;-144.99;87.13;52511.28;5064491;28;20705;-75
2021/11/10 08:35:49;;;;;;;;;;;;;;;-144.99;85.83;52517.41;5073368;28;19952;-75
2021/11/10 08:38:18;;;;;;;;;;;;;;;-144.99;84.97;52513.31;5079241;28;19978;-74
2021/11/10 08:40:44;;;;;;;;;;;;;;;-144.99;84.35;52492.94;5079374;28;19992;-75
2021/11/10 08:43:12;;;;;;;;;;;;;;;-144.99;84.28;52501.09;5080255;28;20017;-75
2021/11/10 08:45:39;;;;;;;;;;;;;;;-144.99;84.75;52484.78;5081939;28;20005;-74
2021/11/10 08:48:06;;;;;;;;;;;;;;;-144.99;84.32;52501.09;5080516;28;20338;-74
2021/11/10 08:50:33;;;;;;;;;;;;;;;-144.99;83.60;52525.56;5080230;28;20018;-76
2021/11/10 08:53:00;;;;;;;;;;;;;;;-144.99;83.44;52521.47;5077073;28;20075;-74
2021/11/10 08:55:28;;;;;;;;;;;;;;;-144.99;83.73;52505.16;5068424;28;19977;-75
2021/11/10 08:57:55;;;;;;;;;;;;;;;-144.99;84.18;52501.09;5073985;28;20494;-73
2021/11/10 09:00:22;;;;;;;;;;;;;;;-144.99;84.47;52525.56;5074929;28;20004;-74
2021/11/10 09:02:49;;;;;;;;;;;;;;;-144.99;84.86;52550.00;5068365;28;19981;-74
2021/11/10 09:05:16;;;;;;;;;;;;;;;-144.99;85.17;52501.09;5062958;28;20235;-73
2021/11/10 09:07:42;;;;;;;;;;;;;;;-144.99;86.30;52505.16;5062788;28;19999;-72
2021/11/10 09:10:10;;;;;;;;;;;;;;;-144.99;87.38;52484.78;5065235;28;19989;-73
2021/11/10 09:12:38;;;;;;;;;;;;;;;-144.99;87.72;52550.00;5062937;28;19992;-74
2021/11/10 09:15:06;;;;;;;;;;;;;;;-144.99;87.84;52537.78;5062425;28;20324;-73
2021/11/10 09:17:35;;;;;;;;;;;;;;;-144.99;88.75;52537.78;5064845;28;19981;-74
2021/11/10 09:20:01;;;;;;;;;;;;;;;-144.99;89.09;52521.47;5064686;28;19992;-75
2021/11/10 09:22:28;;;;;;;;;;;;;;;-144.99;89.30;52513.31;5054502;28;19988;-73
2021/11/10 09:24:54;;;;;;;;;;;;;;;-144.99;89.54;52460.31;5054052;28;19993;-75
2021/11/10 09:27:21;;;;;;;;;;;;;;;-144.99;89.84;52492.94;5065486;28;19989;-74
2021/11/10 09:29:48;;;;;;;;;;;;;;;-144.99;89.61;52497.00;5080683;28;19996;-75
2021/11/10 09:32:15;;;;;;;;;;;;;;;-144.99;90.04;52539.81;5077668;28;20431;-74
2021/11/10 09:34:41;;;;;;;;;;;;;;;-144.99;90.06;52541.84;5079666;28;19981;-73
2021/11/10 09:37:07;;;;;;;;;;;;;;;-144.99;90.39;52501.09;5065972;28;20007;-74
2021/11/10 09:39:34;;;;;;;;;;;;;;;-144.99;91.81;52562.25;5068846;28;20210;-74
2021/11/10 09:42:00;;;;;;;;;;;;;;;-144.99;92.79;52537.78;5066429;28;20451;-74
2021/11/10 09:44:27;;;;;;;;;;;;;;;-144.99;93.31;52517.41;5067853;28;19976;-74
2021/11/10 09:46:55;;;;;;;;;;;;;;;-144.99;93.65;52505.16;5061223;28;19988;-72
2021/11/10 09:49:22;;;;;;;;;;;;;;;-144.99;93.61;52545.94;5068202;28;20220;-73
2021/11/10 09:51:49;;;;;;;;;;;;;;;-144.99;93.78;52558.16;5064395;28;19976;-74
2021/11/10 09:54:16;;;;;;;;;;;;;;;-144.99;93.56;52545.94;5066982;28;19984;-74
2021/11/10 09:56:43;;;;;;;;;;;;;;;-144.99;93.66;52537.78;5064871;28;19983;-74
2021/11/10 09:59:09;;;;;;;;;;;;;;;-144.99;93.58;52537.78;5060362;28;20072;-73
2021/11/10 10:01:37;;;;;;;;;;;;;;;-144.99;93.19;52517.41;5056089;28;19993;-72
2021/11/10 10:04:05;;;;;;;;;;;;;;;-144.99;93.45;52543.91;5060777;28;19981;-72
2021/11/10 10:06:32;;;;;;;;;;;;;;;-144.99;93.05;52513.31;5066969;28;20031;-74
2021/11/10 10:08:59;;;;;;;;;;;;;;;-144.99;93.01;52507.19;5067561;28;20162;-75
2021/11/10 10:11:26;;;;;;;;;;;;;;;-144.99;93.09;52505.16;5059630;28;20393;-75
2021/11/10 10:13:52;;;;;;;;;;;;;;;-144.99;92.96;52460.31;5082455;28;19980;-76
2021/11/10 10:16:22;;;;;;;;;;;;;;;-144.99;92.65;52523.50;5082852;28;20003;-74
2021/11/10 10:18:48;;;;;;;;;;;;;;;-144.99;92.37;52529.63;5081600;28;19981;-74
2021/11/10 10:21:18;;;;;;;;;;;;;;;-144.99;92.05;52517.41;5078783;28;20008;-73
2021/11/10 10:23:45;;;;;;;;;;;;;;;-144.99;92.16;52499.06;5067561;28;19985;-76
2021/11/10 10:26:13;;;;;;;;;;;;;;;-144.99;91.82;52537.78;5065878;28;19988;-75
2021/11/10 10:28:43;;;;;;;;;;;;;;;-144.99;91.71;52513.31;5064363;28;19989;-75
2021/11/10 10:31:11;;;;;;;;;;;;;;;-144.99;91.53;52488.84;5065449;28;19988;-75
2021/11/10 10:33:38;;;;;;;;;;;;;;;-144.99;91.51;52517.41;5060922;28;20403;-76
2021/11/10 10:36:07;;;;;;;;;;;;;;;-144.99;91.11;52519.44;5061126;28;20431;-74
2021/11/10 10:38:36;;;;;;;;;;;;;;;-144.99;90.46;52517.41;5063192;28;20474;-75
2021/11/10 10:41:05;;;;;;;;;;;;;;;-144.99;89.72;52501.09;5089494;22;20037;-77
2021/11/10 10:43:37;;;;;;;;;;;;;;;-144.99;89.52;52515.34;5058528;28;19981;-74
2021/11/10 10:46:04;;;;;;;;;;;;;;;-144.99;89.61;52513.31;5063946;28;20062;-76
2021/11/10 10:48:31;;;;;;;;;;;;;;;-144.99;89.24;52482.75;5065283;28;20001;-76
2021/11/10 10:50:58;;;;;;;;;;;;;;;-144.99;89.42;52497.00;5063093;28;20007;-76
2021/11/10 10:53:39;;;;;;;;;;;;;;;-144.99;89.32;52521.47;5066859;28;20505;-76
2021/11/10 10:56:16;;;;;;;;;;;;;;;-144.99;89.34;52492.94;5060317;28;19984;-79
2021/11/10 10:58:43;;;;;;;;;;;;;;;-144.99;89.26;52529.63;5067274;28;19984;-77
2021/11/10 11:01:29;;;;;;;;;;;;;;;-144.99;89.81;52517.41;5065300;28;19989;-73
2021/11/10 11:03:57;;;;;;;;;;;;;;;-144.99;89.92;52488.84;5056896;28;20395;-77
2021/11/10 11:06:24;;;;;;;;;;;;;;;-144.99;90.30;52488.84;5066337;28;20551;-76
2021/11/10 11:08:52;;;;;;;;;;;;;;;-144.99;90.33;52521.47;5063901;28;19997;-75
2021/11/10 11:11:21;;;;;;;;;;;;;;;-144.99;90.56;52525.56;5065323;28;20001;-77
2021/11/10 11:13:48;;;;;;;;;;;;;;;-144.99;90.78;52505.16;5061571;28;19977;-75
2021/11/10 11:16:20;;;;;;;;;;;;;;;-144.99;91.10;52523.50;5065615;28;20031;-75
2021/11/10 11:18:47;;;;;;;;;;;;;;;-144.99;91.04;52501.09;5061582;28;19977;-74
2021/11/10 11:21:31;;;;;;;;;;;;;;;-144.99;90.93;52484.78;5067284;28;19989;-76
2021/11/10 11:23:59;;;;;;;;;;;;;;;-144.99;91.09;52533.69;5053572;28;19985;-75
2021/11/10 11:26:33;;;;;;;;;;;;;;;-144.99;91.57;52509.25;5063425;28;20015;-78
2021/11/10 11:29:00;;;;;;;;;;;;;;;-144.99;91.72;52521.47;5053892;28;20003;-77
2021/11/10 11:31:35;;;;;;;;;;;;;;;-144.99;92.05;52497.00;5070488;28;19997;-79
2021/11/10 11:34:04;;;;;;;;;;;;;;;-144.99;92.65;52517.41;5070307;28;19984;-76
2021/11/10 11:36:46;;;;;;;;;;;;;;;-144.99;92.73;52501.09;5064752;28;20103;-77
2021/11/10 11:39:14;;;;;;;;;;;;;;;-144.99;92.75;52505.16;5054882;28;19992;-76
2021/11/10 11:41:40;;;;;;;;;;;;;;;-144.99;91.85;52517.41;5065208;28;20005;-77
2021/11/10 11:44:07;;;;;;;;;;;;;;;-144.99;91.54;52523.50;5059700;28;20260;-79
2021/11/10 11:46:33;;;;;;;;;;;;;;;-144.99;91.00;52484.78;5057158;28;19981;-78
2021/11/10 11:49:00;;;;;;;;;;;;;;;-144.99;90.87;52501.09;5066918;28;20026;-77
2021/11/10 11:51:27;;;;;;;;;;;;;;;-144.99;90.71;52515.34;5065630;28;19993;-76
2021/11/10 11:53:53;;;;;;;;;;;;;;;-144.99;90.96;52492.94;5061609;28;20394;-77
2021/11/10 11:56:25;;;;;;;;;;;;;;;-144.99;91.44;52505.16;5056238;28;20450;-74
2021/11/10 11:58:53;;;;;;;;;;;;;;;-144.99;91.54;52511.28;5053321;28;20083;-78
2021/11/10 12:01:22;;;;;;;;;;;;;;;-144.99;91.60;52533.69;5064020;28;20020;-78
2021/11/10 12:03:52;;;;;;;;;;;;;;;-144.99;91.00;52509.25;5065456;28;19983;-76
2021/11/10 12:06:19;;;;;;;;;;;;;;;-144.99;90.33;52525.56;5062449;28;20027;-77
2021/11/10 12:08:46;;;;;;;;;;;;;;;-144.99;90.51;52488.84;5067081;28;20058;-75
2021/11/10 12:11:30;;;;;;;;;;;;;;;-144.99;91.35;52523.50;5069930;28;20013;-74
2021/11/10 12:14:07;;;;;;;;;;;;;;;-144.99;90.62;52537.78;5066678;28;19981;-75
2021/11/10 12:16:44;;;;;;;;;;;;;;;-144.99;90.60;52533.69;5063107;28;20035;-76
2021/11/10 12:19:10;;;;;;;;;;;;;;;-144.99;90.57;52476.63;5052973;28;19985;-76
2021/11/10 12:21:39;;;;;;;;;;;;;;;-144.99;90.26;52501.09;5066636;28;20000;-77
2021/11/10 12:24:25;;;;;;;;;;;;;;;-144.99;89.87;52501.09;5065015;28;21386;-77
2021/11/10 12:27:09;;;;;;;;;;;;;;;-144.99;89.98;52480.72;5056673;28;19995;-76